sensor_id;sensor_type;location;lat;lon;timestamp;P1;durP1;ratioP1;P2;durP2;ratioP2
69906;SDS011;57190;47.918;8.112;2023-07-20T00:00:59;1.55;;;1.30;;
69906;SDS011;57190;47.918;8.112;2023-07-20T00:03:24;4.60;;;1.55;;
69906;SDS011;57190;47.918;8.112;2023-07-20T00:05:50;1.85;;;1.67;;
69906;SDS011;57190;47.918;8.112;2023-07-20T00:08:17;2.38;;;1.75;;
69906;SDS011;57190;47.918;8.112;2023-07-20T00:10:43;1.50;;;1.40;;
69906;SDS011;57190;47.918;8.112;2023-07-20T00:13:09;1.80;;;1.70;;
69906;SDS011;57190;47.918;8.112;2023-07-20T00:15:36;3.50;;;1.75;;
69906;SDS011;57190;47.918;8.112;2023-07-20T00:18:03;3.15;;;1.60;;
69906;SDS011;57190;47.918;8.112;2023-07-20T00:20:29;2.88;;;1.80;;
69906;SDS011;57190;47.918;8.112;2023-07-20T00:22:54;2.42;;;2.22;;
69906;SDS011;57190;47.918;8.112;2023-07-20T00:25:22;3.40;;;1.95;;
69906;SDS011;57190;47.918;8.112;2023-07-20T00:27:48;5.57;;;2.20;;
69906;SDS011;57190;47.918;8.112;2023-07-20T00:30:13;3.03;;;2.25;;
69906;SDS011;57190;47.918;8.112;2023-07-20T00:32:39;3.30;;;1.80;;
69906;SDS011;57190;47.918;8.112;2023-07-20T00:35:04;3.20;;;2.42;;
69906;SDS011;57190;47.918;8.112;2023-07-20T00:37:30;2.28;;;2.08;;
69906;SDS011;57190;47.918;8.112;2023-07-20T00:39:56;3.40;;;1.98;;
69906;SDS011;57190;47.918;8.112;2023-07-20T00:42:22;3.47;;;2.30;;
69906;SDS011;57190;47.918;8.112;2023-07-20T00:44:47;4.07;;;2.40;;
69906;SDS011;57190;47.918;8.112;2023-07-20T00:47:12;2.15;;;1.70;;
69906;SDS011;57190;47.918;8.112;2023-07-20T00:49:38;4.80;;;2.35;;
69906;SDS011;57190;47.918;8.112;2023-07-20T00:52:05;3.50;;;2.05;;
69906;SDS011;57190;47.918;8.112;2023-07-20T00:54:32;3.50;;;2.03;;
69906;SDS011;57190;47.918;8.112;2023-07-20T00:56:58;3.50;;;2.03;;
69906;SDS011;57190;47.918;8.112;2023-07-20T00:59:26;4.78;;;2.10;;
69906;SDS011;57190;47.918;8.112;2023-07-20T01:01:52;2.75;;;1.95;;
69906;SDS011;57190;47.918;8.112;2023-07-20T01:04:18;2.28;;;1.83;;
69906;SDS011;57190;47.918;8.112;2023-07-20T01:12:22;2.65;;;2.28;;
69906;SDS011;57190;47.918;8.112;2023-07-20T01:14:54;3.33;;;2.40;;
69906;SDS011;57190;47.918;8.112;2023-07-20T01:17:20;4.03;;;2.42;;
69906;SDS011;57190;47.918;8.112;2023-07-20T01:19:45;2.90;;;2.20;;
69906;SDS011;57190;47.918;8.112;2023-07-20T01:22:20;3.88;;;2.50;;
69906;SDS011;57190;47.918;8.112;2023-07-20T01:33:04;2.30;;;2.10;;
69906;SDS011;57190;47.918;8.112;2023-07-20T01:35:32;2.50;;;2.05;;
69906;SDS011;57190;47.918;8.112;2023-07-20T01:37:59;2.50;;;2.30;;
69906;SDS011;57190;47.918;8.112;2023-07-20T01:40:25;4.10;;;2.33;;
69906;SDS011;57190;47.918;8.112;2023-07-20T01:42:52;2.65;;;2.30;;
69906;SDS011;57190;47.918;8.112;2023-07-20T01:45:18;4.00;;;2.40;;
69906;SDS011;57190;47.918;8.112;2023-07-20T01:47:44;2.83;;;2.63;;
69906;SDS011;57190;47.918;8.112;2023-07-20T01:50:10;2.80;;;2.47;;
69906;SDS011;57190;47.918;8.112;2023-07-20T01:52:35;4.40;;;2.38;;
69906;SDS011;57190;47.918;8.112;2023-07-20T01:55:01;2.78;;;2.35;;
69906;SDS011;57190;47.918;8.112;2023-07-20T01:57:27;2.45;;;2.25;;
69906;SDS011;57190;47.918;8.112;2023-07-20T01:59:52;4.03;;;3.08;;
69906;SDS011;57190;47.918;8.112;2023-07-20T02:02:18;4.90;;;2.55;;
69906;SDS011;57190;47.918;8.112;2023-07-20T02:04:43;4.60;;;2.70;;
69906;SDS011;57190;47.918;8.112;2023-07-20T02:07:09;4.22;;;2.50;;
69906;SDS011;57190;47.918;8.112;2023-07-20T02:09:34;2.40;;;2.20;;
69906;SDS011;57190;47.918;8.112;2023-07-20T02:12:00;3.50;;;2.65;;
69906;SDS011;57190;47.918;8.112;2023-07-20T02:14:25;2.83;;;2.63;;
69906;SDS011;57190;47.918;8.112;2023-07-20T02:16:51;3.72;;;2.45;;
69906;SDS011;57190;47.918;8.112;2023-07-20T02:19:17;4.13;;;2.40;;
69906;SDS011;57190;47.918;8.112;2023-07-20T02:21:43;4.05;;;2.58;;
69906;SDS011;57190;47.918;8.112;2023-07-20T02:24:09;3.92;;;2.65;;
69906;SDS011;57190;47.918;8.112;2023-07-20T02:26:34;2.75;;;2.53;;
69906;SDS011;57190;47.918;8.112;2023-07-20T02:29:00;3.47;;;2.63;;
69906;SDS011;57190;47.918;8.112;2023-07-20T02:31:25;4.55;;;2.33;;
69906;SDS011;57190;47.918;8.112;2023-07-20T02:33:51;3.35;;;2.70;;
69906;SDS011;57190;47.918;8.112;2023-07-20T02:36:16;2.83;;;2.60;;
69906;SDS011;57190;47.918;8.112;2023-07-20T02:38:42;3.17;;;2.75;;
69906;SDS011;57190;47.918;8.112;2023-07-20T02:41:08;4.20;;;2.70;;
69906;SDS011;57190;47.918;8.112;2023-07-20T02:43:33;4.15;;;2.58;;
69906;SDS011;57190;47.918;8.112;2023-07-20T02:45:59;3.22;;;2.40;;
69906;SDS011;57190;47.918;8.112;2023-07-20T02:48:24;4.65;;;2.80;;
69906;SDS011;57190;47.918;8.112;2023-07-20T02:50:50;2.80;;;2.58;;
69906;SDS011;57190;47.918;8.112;2023-07-20T02:53:15;2.28;;;2.08;;
69906;SDS011;57190;47.918;8.112;2023-07-20T02:55:41;6.38;;;2.88;;
69906;SDS011;57190;47.918;8.112;2023-07-20T02:58:06;3.13;;;2.78;;
69906;SDS011;57190;47.918;8.112;2023-07-20T03:00:32;5.25;;;2.30;;
69906;SDS011;57190;47.918;8.112;2023-07-20T03:02:58;3.90;;;2.40;;
69906;SDS011;57190;47.918;8.112;2023-07-20T03:05:23;4.03;;;2.80;;
69906;SDS011;57190;47.918;8.112;2023-07-20T03:07:50;3.55;;;2.40;;
69906;SDS011;57190;47.918;8.112;2023-07-20T03:10:16;5.07;;;3.10;;
69906;SDS011;57190;47.918;8.112;2023-07-20T03:12:42;3.28;;;2.80;;
69906;SDS011;57190;47.918;8.112;2023-07-20T03:15:07;3.75;;;2.47;;
69906;SDS011;57190;47.918;8.112;2023-07-20T03:17:33;2.75;;;2.55;;
69906;SDS011;57190;47.918;8.112;2023-07-20T03:19:59;2.75;;;2.45;;
69906;SDS011;57190;47.918;8.112;2023-07-20T03:22:25;3.22;;;2.92;;
69906;SDS011;57190;47.918;8.112;2023-07-20T03:24:51;3.25;;;2.90;;
69906;SDS011;57190;47.918;8.112;2023-07-20T03:27:17;2.97;;;2.35;;
69906;SDS011;57190;47.918;8.112;2023-07-20T03:29:43;2.63;;;2.42;;
69906;SDS011;57190;47.918;8.112;2023-07-20T03:32:09;3.00;;;2.80;;
69906;SDS011;57190;47.918;8.112;2023-07-20T03:34:35;3.75;;;2.47;;
69906;SDS011;57190;47.918;8.112;2023-07-20T03:37:01;3.15;;;2.38;;
69906;SDS011;57190;47.918;8.112;2023-07-20T03:39:26;3.55;;;2.60;;
69906;SDS011;57190;47.918;8.112;2023-07-20T03:41:52;3.50;;;3.08;;
69906;SDS011;57190;47.918;8.112;2023-07-20T03:44:17;3.70;;;3.40;;
69906;SDS011;57190;47.918;8.112;2023-07-20T03:46:43;2.75;;;2.50;;
69906;SDS011;57190;47.918;8.112;2023-07-20T03:49:09;2.70;;;2.50;;
69906;SDS011;57190;47.918;8.112;2023-07-20T03:51:35;3.47;;;2.67;;
69906;SDS011;57190;47.918;8.112;2023-07-20T03:54:01;4.03;;;2.63;;
69906;SDS011;57190;47.918;8.112;2023-07-20T03:56:27;6.38;;;2.95;;
69906;SDS011;57190;47.918;8.112;2023-07-20T03:58:52;2.55;;;2.35;;
69906;SDS011;57190;47.918;8.112;2023-07-20T04:01:18;3.28;;;2.60;;
69906;SDS011;57190;47.918;8.112;2023-07-20T04:03:43;2.50;;;2.17;;
69906;SDS011;57190;47.918;8.112;2023-07-20T04:06:09;3.35;;;2.28;;
69906;SDS011;57190;47.918;8.112;2023-07-20T04:08:35;4.20;;;2.63;;
69906;SDS011;57190;47.918;8.112;2023-07-20T04:11:02;3.30;;;3.00;;
69906;SDS011;57190;47.918;8.112;2023-07-20T04:13:27;3.45;;;2.80;;
69906;SDS011;57190;47.918;8.112;2023-07-20T04:15:53;2.80;;;2.60;;
69906;SDS011;57190;47.918;8.112;2023-07-20T04:18:20;3.17;;;2.88;;
69906;SDS011;57190;47.918;8.112;2023-07-20T04:20:45;3.08;;;2.75;;
69906;SDS011;57190;47.918;8.112;2023-07-20T04:23:11;3.15;;;2.92;;
69906;SDS011;57190;47.918;8.112;2023-07-20T04:25:39;3.08;;;2.67;;
69906;SDS011;57190;47.918;8.112;2023-07-20T04:28:06;2.97;;;2.67;;
69906;SDS011;57190;47.918;8.112;2023-07-20T04:30:34;5.60;;;2.75;;
69906;SDS011;57190;47.918;8.112;2023-07-20T04:33:03;4.15;;;2.70;;
69906;SDS011;57190;47.918;8.112;2023-07-20T04:38:21;3.20;;;2.90;;
69906;SDS011;57190;47.918;8.112;2023-07-20T04:40:48;2.33;;;2.13;;
69906;SDS011;57190;47.918;8.112;2023-07-20T04:43:14;3.47;;;2.90;;
69906;SDS011;57190;47.918;8.112;2023-07-20T04:45:40;4.05;;;2.72;;
69906;SDS011;57190;47.918;8.112;2023-07-20T04:48:12;3.55;;;3.03;;
69906;SDS011;57190;47.918;8.112;2023-07-20T04:50:42;2.78;;;2.55;;
69906;SDS011;57190;47.918;8.112;2023-07-20T04:53:10;5.07;;;3.45;;
69906;SDS011;57190;47.918;8.112;2023-07-20T04:55:36;4.97;;;4.57;;
69906;SDS011;57190;47.918;8.112;2023-07-20T04:58:03;6.22;;;4.43;;
69906;SDS011;57190;47.918;8.112;2023-07-20T05:00:29;3.67;;;3.38;;
69906;SDS011;57190;47.918;8.112;2023-07-20T05:02:55;3.50;;;3.20;;
69906;SDS011;57190;47.918;8.112;2023-07-20T05:05:21;6.25;;;2.92;;
69906;SDS011;57190;47.918;8.112;2023-07-20T05:07:47;4.15;;;2.63;;
69906;SDS011;57190;47.918;8.112;2023-07-20T05:10:13;2.80;;;2.60;;
69906;SDS011;57190;47.918;8.112;2023-07-20T05:12:38;3.20;;;2.90;;
69906;SDS011;57190;47.918;8.112;2023-07-20T05:15:04;4.28;;;3.72;;
69906;SDS011;57190;47.918;8.112;2023-07-20T05:17:30;3.70;;;3.08;;
69906;SDS011;57190;47.918;8.112;2023-07-20T05:19:55;3.08;;;2.70;;
69906;SDS011;57190;47.918;8.112;2023-07-20T05:22:21;3.25;;;2.97;;
69906;SDS011;57190;47.918;8.112;2023-07-20T05:24:47;4.43;;;2.70;;
69906;SDS011;57190;47.918;8.112;2023-07-20T05:27:12;3.47;;;2.70;;
69906;SDS011;57190;47.918;8.112;2023-07-20T05:29:38;6.55;;;3.22;;
69906;SDS011;57190;47.918;8.112;2023-07-20T05:32:09;3.03;;;2.83;;
69906;SDS011;57190;47.918;8.112;2023-07-20T05:34:35;3.45;;;3.15;;
69906;SDS011;57190;47.918;8.112;2023-07-20T05:37:00;3.80;;;3.13;;
69906;SDS011;57190;47.918;8.112;2023-07-20T05:39:25;3.40;;;3.10;;
69906;SDS011;57190;47.918;8.112;2023-07-20T05:51:38;4.03;;;2.80;;
69906;SDS011;57190;47.918;8.112;2023-07-20T05:54:03;3.47;;;2.47;;
69906;SDS011;57190;47.918;8.112;2023-07-20T05:56:29;3.03;;;2.30;;
69906;SDS011;57190;47.918;8.112;2023-07-20T05:58:54;3.35;;;2.40;;
69906;SDS011;57190;47.918;8.112;2023-07-20T06:01:19;2.97;;;2.58;;
69906;SDS011;57190;47.918;8.112;2023-07-20T06:03:45;3.95;;;2.70;;
69906;SDS011;57190;47.918;8.112;2023-07-20T06:06:10;2.53;;;2.33;;
69906;SDS011;57190;47.918;8.112;2023-07-20T06:08:37;2.45;;;2.25;;
69906;SDS011;57190;47.918;8.112;2023-07-20T06:11:03;3.13;;;2.05;;
69906;SDS011;57190;47.918;8.112;2023-07-20T06:13:28;5.30;;;2.40;;
69906;SDS011;57190;47.918;8.112;2023-07-20T06:15:54;4.13;;;2.15;;
69906;SDS011;57190;47.918;8.112;2023-07-20T06:18:20;3.30;;;2.90;;
69906;SDS011;57190;47.918;8.112;2023-07-20T06:20:50;2.42;;;2.22;;
69906;SDS011;57190;47.918;8.112;2023-07-20T06:23:18;2.65;;;2.45;;
69906;SDS011;57190;47.918;8.112;2023-07-20T06:25:44;2.13;;;1.92;;
69906;SDS011;57190;47.918;8.112;2023-07-20T06:28:09;2.53;;;2.20;;
69906;SDS011;57190;47.918;8.112;2023-07-20T06:30:35;2.90;;;2.20;;
69906;SDS011;57190;47.918;8.112;2023-07-20T06:33:00;3.97;;;2.00;;
69906;SDS011;57190;47.918;8.112;2023-07-20T06:35:25;3.63;;;2.40;;
69906;SDS011;57190;47.918;8.112;2023-07-20T06:37:51;2.40;;;2.08;;
69906;SDS011;57190;47.918;8.112;2023-07-20T06:40:17;4.43;;;2.58;;
69906;SDS011;57190;47.918;8.112;2023-07-20T06:42:42;3.17;;;2.00;;
69906;SDS011;57190;47.918;8.112;2023-07-20T06:45:08;2.25;;;1.95;;
69906;SDS011;57190;47.918;8.112;2023-07-20T06:47:34;2.15;;;1.77;;
69906;SDS011;57190;47.918;8.112;2023-07-20T06:50:00;2.45;;;2.25;;
69906;SDS011;57190;47.918;8.112;2023-07-20T06:52:25;11.43;;;4.75;;
69906;SDS011;57190;47.918;8.112;2023-07-20T06:54:51;18.70;;;6.03;;
69906;SDS011;57190;47.918;8.112;2023-07-20T06:57:16;8.77;;;4.53;;
69906;SDS011;57190;47.918;8.112;2023-07-20T06:59:41;3.10;;;2.20;;
69906;SDS011;57190;47.918;8.112;2023-07-20T07:02:07;3.47;;;2.53;;
69906;SDS011;57190;47.918;8.112;2023-07-20T07:04:33;2.47;;;1.98;;
69906;SDS011;57190;47.918;8.112;2023-07-20T07:06:59;3.22;;;2.15;;
69906;SDS011;57190;47.918;8.112;2023-07-20T07:09:25;3.35;;;2.35;;
69906;SDS011;57190;47.918;8.112;2023-07-20T07:11:50;3.72;;;2.15;;
69906;SDS011;57190;47.918;8.112;2023-07-20T07:14:16;2.33;;;2.08;;
69906;SDS011;57190;47.918;8.112;2023-07-20T07:16:41;2.42;;;2.00;;
69906;SDS011;57190;47.918;8.112;2023-07-20T07:19:07;3.15;;;2.42;;
69906;SDS011;57190;47.918;8.112;2023-07-20T07:21:33;3.80;;;1.85;;
69906;SDS011;57190;47.918;8.112;2023-07-20T07:23:58;2.88;;;1.90;;
69906;SDS011;57190;47.918;8.112;2023-07-20T07:26:25;2.05;;;1.70;;
69906;SDS011;57190;47.918;8.112;2023-07-20T07:28:50;1.80;;;1.60;;
69906;SDS011;57190;47.918;8.112;2023-07-20T07:31:16;2.95;;;2.20;;
69906;SDS011;57190;47.918;8.112;2023-07-20T07:33:41;2.33;;;2.13;;
69906;SDS011;57190;47.918;8.112;2023-07-20T07:36:07;1.70;;;1.60;;
69906;SDS011;57190;47.918;8.112;2023-07-20T07:38:32;1.77;;;1.67;;
69906;SDS011;57190;47.918;8.112;2023-07-20T07:40:58;2.75;;;1.80;;
69906;SDS011;57190;47.918;8.112;2023-07-20T07:43:24;2.05;;;1.88;;
69906;SDS011;57190;47.918;8.112;2023-07-20T07:45:50;2.05;;;1.80;;
69906;SDS011;57190;47.918;8.112;2023-07-20T07:48:18;3.80;;;2.22;;
69906;SDS011;57190;47.918;8.112;2023-07-20T07:50:45;2.10;;;1.83;;
69906;SDS011;57190;47.918;8.112;2023-07-20T07:53:11;4.03;;;2.65;;
69906;SDS011;57190;47.918;8.112;2023-07-20T07:55:36;2.83;;;1.92;;
69906;SDS011;57190;47.918;8.112;2023-07-20T07:58:02;4.30;;;1.67;;
69906;SDS011;57190;47.918;8.112;2023-07-20T08:00:27;3.30;;;2.00;;
69906;SDS011;57190;47.918;8.112;2023-07-20T08:02:53;2.53;;;1.92;;
69906;SDS011;57190;47.918;8.112;2023-07-20T08:05:18;2.35;;;2.03;;
69906;SDS011;57190;47.918;8.112;2023-07-20T08:07:44;2.05;;;1.77;;
69906;SDS011;57190;47.918;8.112;2023-07-20T08:10:10;1.83;;;1.73;;
69906;SDS011;57190;47.918;8.112;2023-07-20T08:12:36;3.97;;;1.80;;
69906;SDS011;57190;47.918;8.112;2023-07-20T08:15:01;3.55;;;1.90;;
69906;SDS011;57190;47.918;8.112;2023-07-20T08:17:27;2.53;;;1.80;;
69906;SDS011;57190;47.918;8.112;2023-07-20T08:19:52;2.97;;;2.55;;
69906;SDS011;57190;47.918;8.112;2023-07-20T08:22:18;2.80;;;1.75;;
69906;SDS011;57190;47.918;8.112;2023-07-20T08:24:44;2.00;;;1.80;;
69906;SDS011;57190;47.918;8.112;2023-07-20T08:27:10;2.30;;;2.00;;
69906;SDS011;57190;47.918;8.112;2023-07-20T08:29:35;2.65;;;1.80;;
69906;SDS011;57190;47.918;8.112;2023-07-20T08:32:02;2.13;;;1.80;;
69906;SDS011;57190;47.918;8.112;2023-07-20T08:34:28;4.18;;;1.90;;
69906;SDS011;57190;47.918;8.112;2023-07-20T08:36:53;2.58;;;1.92;;
69906;SDS011;57190;47.918;8.112;2023-07-20T08:39:19;2.22;;;1.92;;
69906;SDS011;57190;47.918;8.112;2023-07-20T08:41:47;2.25;;;2.05;;
69906;SDS011;57190;47.918;8.112;2023-07-20T08:44:13;2.15;;;1.95;;
69906;SDS011;57190;47.918;8.112;2023-07-20T08:46:39;2.15;;;1.95;;
69906;SDS011;57190;47.918;8.112;2023-07-20T08:49:06;3.95;;;2.10;;
69906;SDS011;57190;47.918;8.112;2023-07-20T08:51:32;1.95;;;1.80;;
69906;SDS011;57190;47.918;8.112;2023-07-20T08:53:59;2.30;;;1.73;;
69906;SDS011;57190;47.918;8.112;2023-07-20T08:56:25;3.47;;;1.90;;
69906;SDS011;57190;47.918;8.112;2023-07-20T08:58:51;3.28;;;2.03;;
69906;SDS011;57190;47.918;8.112;2023-07-20T09:01:18;4.45;;;1.88;;
69906;SDS011;57190;47.918;8.112;2023-07-20T09:03:45;2.00;;;1.85;;
69906;SDS011;57190;47.918;8.112;2023-07-20T09:06:11;4.45;;;1.85;;
69906;SDS011;57190;47.918;8.112;2023-07-20T09:08:38;2.83;;;1.70;;
69906;SDS011;57190;47.918;8.112;2023-07-20T09:11:04;2.42;;;1.70;;
69906;SDS011;57190;47.918;8.112;2023-07-20T09:13:31;3.67;;;2.15;;
69906;SDS011;57190;47.918;8.112;2023-07-20T09:15:57;2.55;;;1.92;;
69906;SDS011;57190;47.918;8.112;2023-07-20T09:18:27;2.53;;;1.92;;
69906;SDS011;57190;47.918;8.112;2023-07-20T09:21:03;3.78;;;1.90;;
69906;SDS011;57190;47.918;8.112;2023-07-20T09:23:30;2.40;;;2.05;;
69906;SDS011;57190;47.918;8.112;2023-07-20T09:26:00;3.22;;;2.03;;
69906;SDS011;57190;47.918;8.112;2023-07-20T09:28:39;4.72;;;1.90;;
69906;SDS011;57190;47.918;8.112;2023-07-20T09:31:17;1.85;;;1.70;;
69906;SDS011;57190;47.918;8.112;2023-07-20T09:33:44;2.05;;;1.85;;
69906;SDS011;57190;47.918;8.112;2023-07-20T09:36:13;3.83;;;2.38;;
69906;SDS011;57190;47.918;8.112;2023-07-20T09:38:42;2.17;;;1.98;;
69906;SDS011;57190;47.918;8.112;2023-07-20T09:41:12;2.13;;;1.92;;
69906;SDS011;57190;47.918;8.112;2023-07-20T09:43:39;2.63;;;2.08;;
69906;SDS011;57190;47.918;8.112;2023-07-20T09:46:06;2.13;;;1.83;;
69906;SDS011;57190;47.918;8.112;2023-07-20T09:48:32;2.70;;;2.22;;
69906;SDS011;57190;47.918;8.112;2023-07-20T09:50:57;2.47;;;1.80;;
69906;SDS011;57190;47.918;8.112;2023-07-20T09:53:24;4.18;;;2.40;;
69906;SDS011;57190;47.918;8.112;2023-07-20T09:55:50;2.15;;;1.95;;
69906;SDS011;57190;47.918;8.112;2023-07-20T09:58:17;2.10;;;1.90;;
69906;SDS011;57190;47.918;8.112;2023-07-20T10:00:43;2.85;;;1.88;;
69906;SDS011;57190;47.918;8.112;2023-07-20T10:03:12;3.15;;;1.83;;
69906;SDS011;57190;47.918;8.112;2023-07-20T10:05:43;2.92;;;1.98;;
69906;SDS011;57190;47.918;8.112;2023-07-20T10:08:12;2.40;;;1.92;;
69906;SDS011;57190;47.918;8.112;2023-07-20T10:10:38;2.92;;;1.70;;
69906;SDS011;57190;47.918;8.112;2023-07-20T10:13:10;2.03;;;1.77;;
69906;SDS011;57190;47.918;8.112;2023-07-20T10:16:27;2.90;;;2.15;;
69906;SDS011;57190;47.918;8.112;2023-07-20T10:21:37;1.92;;;1.67;;
69906;SDS011;57190;47.918;8.112;2023-07-20T10:24:07;1.88;;;1.77;;
69906;SDS011;57190;47.918;8.112;2023-07-20T10:26:34;2.92;;;2.33;;
69906;SDS011;57190;47.918;8.112;2023-07-20T10:29:02;2.10;;;1.80;;
69906;SDS011;57190;47.918;8.112;2023-07-20T10:31:29;3.17;;;1.60;;
69906;SDS011;57190;47.918;8.112;2023-07-20T10:33:58;2.80;;;1.73;;
69906;SDS011;57190;47.918;8.112;2023-07-20T10:36:25;2.17;;;1.80;;
69906;SDS011;57190;47.918;8.112;2023-07-20T10:38:55;2.45;;;2.00;;
69906;SDS011;57190;47.918;8.112;2023-07-20T10:41:28;3.17;;;1.75;;
69906;SDS011;57190;47.918;8.112;2023-07-20T10:43:58;3.40;;;1.52;;
69906;SDS011;57190;47.918;8.112;2023-07-20T10:49:05;2.08;;;1.83;;
69906;SDS011;57190;47.918;8.112;2023-07-20T10:51:47;1.90;;;1.70;;
69906;SDS011;57190;47.918;8.112;2023-07-20T10:56:51;2.80;;;1.80;;
69906;SDS011;57190;47.918;8.112;2023-07-20T11:02:07;3.05;;;1.50;;
69906;SDS011;57190;47.918;8.112;2023-07-20T11:04:40;1.58;;;1.48;;
69906;SDS011;57190;47.918;8.112;2023-07-20T11:07:07;2.83;;;1.55;;
69906;SDS011;57190;47.918;8.112;2023-07-20T11:09:33;1.55;;;1.35;;
69906;SDS011;57190;47.918;8.112;2023-07-20T11:12:13;4.53;;;1.88;;
69906;SDS011;57190;47.918;8.112;2023-07-20T11:14:40;1.90;;;1.70;;
69906;SDS011;57190;47.918;8.112;2023-07-20T11:17:13;1.90;;;1.60;;
69906;SDS011;57190;47.918;8.112;2023-07-20T11:19:40;1.50;;;1.40;;
69906;SDS011;57190;47.918;8.112;2023-07-20T11:22:07;2.45;;;1.70;;
69906;SDS011;57190;47.918;8.112;2023-07-20T11:24:39;1.38;;;1.20;;
69906;SDS011;57190;47.918;8.112;2023-07-20T11:27:05;3.20;;;1.60;;
69906;SDS011;57190;47.918;8.112;2023-07-20T11:29:31;1.67;;;1.55;;
69906;SDS011;57190;47.918;8.112;2023-07-20T11:31:56;1.75;;;1.65;;
69906;SDS011;57190;47.918;8.112;2023-07-20T11:34:24;1.88;;;1.67;;
69906;SDS011;57190;47.918;8.112;2023-07-20T11:36:50;1.67;;;1.58;;
69906;SDS011;57190;47.918;8.112;2023-07-20T11:39:17;1.52;;;1.30;;
69906;SDS011;57190;47.918;8.112;2023-07-20T11:41:48;1.65;;;1.55;;
69906;SDS011;57190;47.918;8.112;2023-07-20T11:44:17;2.15;;;1.65;;
69906;SDS011;57190;47.918;8.112;2023-07-20T11:46:44;1.77;;;1.67;;
69906;SDS011;57190;47.918;8.112;2023-07-20T11:49:10;1.80;;;1.65;;
69906;SDS011;57190;47.918;8.112;2023-07-20T11:51:37;1.80;;;1.70;;
69906;SDS011;57190;47.918;8.112;2023-07-20T11:54:05;3.42;;;1.73;;
69906;SDS011;57190;47.918;8.112;2023-07-20T11:56:32;1.73;;;1.63;;
69906;SDS011;57190;47.918;8.112;2023-07-20T11:58:58;2.05;;;1.75;;
69906;SDS011;57190;47.918;8.112;2023-07-20T12:01:25;2.25;;;1.77;;
69906;SDS011;57190;47.918;8.112;2023-07-20T12:03:56;1.60;;;1.45;;
69906;SDS011;57190;47.918;8.112;2023-07-20T12:06:27;1.50;;;1.40;;
69906;SDS011;57190;47.918;8.112;2023-07-20T12:08:55;3.97;;;1.70;;
69906;SDS011;57190;47.918;8.112;2023-07-20T12:14:11;3.90;;;1.50;;
69906;SDS011;57190;47.918;8.112;2023-07-20T12:16:37;2.00;;;1.35;;
69906;SDS011;57190;47.918;8.112;2023-07-20T12:19:06;1.83;;;1.52;;
69906;SDS011;57190;47.918;8.112;2023-07-20T12:21:41;2.13;;;1.90;;
69906;SDS011;57190;47.918;8.112;2023-07-20T12:24:10;1.85;;;1.55;;
69906;SDS011;57190;47.918;8.112;2023-07-20T12:26:36;2.15;;;1.63;;
69906;SDS011;57190;47.918;8.112;2023-07-20T12:29:02;1.80;;;1.52;;
69906;SDS011;57190;47.918;8.112;2023-07-20T12:31:29;1.83;;;1.30;;
69906;SDS011;57190;47.918;8.112;2023-07-20T12:33:56;3.15;;;1.92;;
69906;SDS011;57190;47.918;8.112;2023-07-20T12:36:22;2.63;;;1.45;;
69906;SDS011;57190;47.918;8.112;2023-07-20T12:38:48;3.50;;;1.48;;
69906;SDS011;57190;47.918;8.112;2023-07-20T12:41:16;2.75;;;1.52;;
69906;SDS011;57190;47.918;8.112;2023-07-20T12:43:42;1.40;;;1.30;;
69906;SDS011;57190;47.918;8.112;2023-07-20T12:46:08;2.20;;;1.95;;
69906;SDS011;57190;47.918;8.112;2023-07-20T12:48:35;1.98;;;1.60;;
69906;SDS011;57190;47.918;8.112;2023-07-20T12:51:06;1.60;;;1.50;;
69906;SDS011;57190;47.918;8.112;2023-07-20T12:53:32;1.60;;;1.50;;
69906;SDS011;57190;47.918;8.112;2023-07-20T12:55:58;1.70;;;1.50;;
69906;SDS011;57190;47.918;8.112;2023-07-20T12:58:24;1.70;;;1.60;;
69906;SDS011;57190;47.918;8.112;2023-07-20T13:00:50;1.67;;;1.58;;
69906;SDS011;57190;47.918;8.112;2023-07-20T13:03:16;2.30;;;1.52;;
69906;SDS011;57190;47.918;8.112;2023-07-20T13:05:43;3.67;;;2.30;;
69906;SDS011;57190;47.918;8.112;2023-07-20T13:08:09;1.50;;;1.33;;
69906;SDS011;57190;47.918;8.112;2023-07-20T13:10:34;2.38;;;1.60;;
69906;SDS011;57190;47.918;8.112;2023-07-20T13:13:00;2.05;;;1.52;;
69906;SDS011;57190;47.918;8.112;2023-07-20T13:15:29;1.70;;;1.60;;
69906;SDS011;57190;47.918;8.112;2023-07-20T13:17:57;2.05;;;1.90;;
69906;SDS011;57190;47.918;8.112;2023-07-20T13:20:23;2.75;;;2.00;;
69906;SDS011;57190;47.918;8.112;2023-07-20T13:22:49;3.30;;;1.90;;
69906;SDS011;57190;47.918;8.112;2023-07-20T13:25:14;4.60;;;1.60;;
69906;SDS011;57190;47.918;8.112;2023-07-20T13:27:40;2.20;;;1.48;;
69906;SDS011;57190;47.918;8.112;2023-07-20T13:30:06;1.55;;;1.38;;
69906;SDS011;57190;47.918;8.112;2023-07-20T13:32:33;2.10;;;1.67;;
69906;SDS011;57190;47.918;8.112;2023-07-20T13:34:58;2.75;;;1.60;;
69906;SDS011;57190;47.918;8.112;2023-07-20T13:37:24;1.80;;;1.50;;
69906;SDS011;57190;47.918;8.112;2023-07-20T13:39:50;1.63;;;1.45;;
69906;SDS011;57190;47.918;8.112;2023-07-20T13:42:15;3.28;;;1.67;;
69906;SDS011;57190;47.918;8.112;2023-07-20T13:44:42;2.83;;;1.90;;
69906;SDS011;57190;47.918;8.112;2023-07-20T13:47:07;2.20;;;1.70;;
69906;SDS011;57190;47.918;8.112;2023-07-20T13:49:33;1.95;;;1.73;;
69906;SDS011;57190;47.918;8.112;2023-07-20T13:51:58;3.47;;;1.45;;
69906;SDS011;57190;47.918;8.112;2023-07-20T13:54:25;1.60;;;1.50;;
69906;SDS011;57190;47.918;8.112;2023-07-20T13:56:50;2.55;;;1.83;;
69906;SDS011;57190;47.918;8.112;2023-07-20T13:59:17;1.67;;;1.58;;
69906;SDS011;57190;47.918;8.112;2023-07-20T14:01:43;1.73;;;1.58;;
69906;SDS011;57190;47.918;8.112;2023-07-20T14:04:08;2.22;;;2.00;;
69906;SDS011;57190;47.918;8.112;2023-07-20T14:06:34;1.80;;;1.70;;
69906;SDS011;57190;47.918;8.112;2023-07-20T14:09:00;2.42;;;1.60;;
69906;SDS011;57190;47.918;8.112;2023-07-20T14:11:25;1.25;;;1.17;;
69906;SDS011;57190;47.918;8.112;2023-07-20T14:13:51;1.98;;;1.77;;
69906;SDS011;57190;47.918;8.112;2023-07-20T14:16:18;2.90;;;1.70;;
69906;SDS011;57190;47.918;8.112;2023-07-20T14:18:47;2.20;;;1.77;;
69906;SDS011;57190;47.918;8.112;2023-07-20T14:21:17;1.50;;;1.40;;
69906;SDS011;57190;47.918;8.112;2023-07-20T14:23:47;2.03;;;1.83;;
69906;SDS011;57190;47.918;8.112;2023-07-20T14:26:14;2.42;;;1.70;;
69906;SDS011;57190;47.918;8.112;2023-07-20T14:28:41;3.45;;;1.70;;
69906;SDS011;57190;47.918;8.112;2023-07-20T14:31:07;2.22;;;1.50;;
69906;SDS011;57190;47.918;8.112;2023-07-20T14:33:32;1.55;;;1.45;;
69906;SDS011;57190;47.918;8.112;2023-07-20T14:35:58;1.65;;;1.42;;
69906;SDS011;57190;47.918;8.112;2023-07-20T14:38:24;1.90;;;1.80;;
69906;SDS011;57190;47.918;8.112;2023-07-20T14:40:49;1.90;;;1.75;;
69906;SDS011;57190;47.918;8.112;2023-07-20T14:43:16;2.08;;;1.83;;
69906;SDS011;57190;47.918;8.112;2023-07-20T14:45:42;1.50;;;1.40;;
69906;SDS011;57190;47.918;8.112;2023-07-20T14:48:07;1.77;;;1.67;;
69906;SDS011;57190;47.918;8.112;2023-07-20T14:50:33;2.10;;;1.90;;
69906;SDS011;57190;47.918;8.112;2023-07-20T14:52:59;3.80;;;2.53;;
69906;SDS011;57190;47.918;8.112;2023-07-20T14:55:25;5.00;;;3.30;;
69906;SDS011;57190;47.918;8.112;2023-07-20T14:57:50;8.60;;;5.93;;
69906;SDS011;57190;47.918;8.112;2023-07-20T15:00:16;3.97;;;3.10;;
69906;SDS011;57190;47.918;8.112;2023-07-20T15:02:42;9.18;;;7.68;;
69906;SDS011;57190;47.918;8.112;2023-07-20T15:05:09;6.47;;;5.88;;
69906;SDS011;57190;47.918;8.112;2023-07-20T15:07:35;2.25;;;2.05;;
69906;SDS011;57190;47.918;8.112;2023-07-20T15:10:02;9.02;;;5.55;;
69906;SDS011;57190;47.918;8.112;2023-07-20T15:12:29;2.35;;;2.15;;
69906;SDS011;57190;47.918;8.112;2023-07-20T15:15:04;1.42;;;1.33;;
69906;SDS011;57190;47.918;8.112;2023-07-20T15:17:31;4.78;;;3.22;;
69906;SDS011;57190;47.918;8.112;2023-07-20T15:19:56;2.15;;;1.95;;
69906;SDS011;57190;47.918;8.112;2023-07-20T15:22:22;4.53;;;2.20;;
69906;SDS011;57190;47.918;8.112;2023-07-20T15:24:47;1.75;;;1.60;;